sensor_id;sensor_type;location;lat;lon;timestamp;P1;durP1;ratioP1;P2;durP2;ratioP2
2039;SDS011;1025;42.686;23.350;2022-11-23T00:00:16;6.90;;;6.30;;
2039;SDS011;1025;42.686;23.350;2022-11-23T00:02:43;6.33;;;5.23;;
2039;SDS011;1025;42.686;23.350;2022-11-23T00:05:09;5.17;;;4.97;;
2039;SDS011;1025;42.686;23.350;2022-11-23T00:07:36;7.17;;;6.47;;
2039;SDS011;1025;42.686;23.350;2022-11-23T00:10:03;6.87;;;6.37;;
2039;SDS011;1025;42.686;23.350;2022-11-23T00:12:31;8.30;;;6.80;;
2039;SDS011;1025;42.686;23.350;2022-11-23T00:14:58;6.67;;;6.30;;
2039;SDS011;1025;42.686;23.350;2022-11-23T00:17:24;7.57;;;7.07;;
2039;SDS011;1025;42.686;23.350;2022-11-23T00:19:51;7.03;;;6.43;;
2039;SDS011;1025;42.686;23.350;2022-11-23T00:22:18;7.93;;;7.30;;
2039;SDS011;1025;42.686;23.350;2022-11-23T00:24:44;6.30;;;5.90;;
2039;SDS011;1025;42.686;23.350;2022-11-23T00:27:11;6.00;;;5.50;;
2039;SDS011;1025;42.686;23.350;2022-11-23T00:29:39;5.10;;;4.80;;
2039;SDS011;1025;42.686;23.350;2022-11-23T00:32:05;7.23;;;6.60;;
2039;SDS011;1025;42.686;23.350;2022-11-23T00:34:32;6.67;;;6.07;;
2039;SDS011;1025;42.686;23.350;2022-11-23T00:36:58;7.30;;;6.63;;
2039;SDS011;1025;42.686;23.350;2022-11-23T00:39:25;6.50;;;6.00;;
2039;SDS011;1025;42.686;23.350;2022-11-23T00:41:51;7.80;;;7.27;;
2039;SDS011;1025;42.686;23.350;2022-11-23T00:44:18;6.77;;;6.17;;
2039;SDS011;1025;42.686;23.350;2022-11-23T00:46:46;7.13;;;6.63;;
2039;SDS011;1025;42.686;23.350;2022-11-23T00:49:12;8.00;;;7.20;;
2039;SDS011;1025;42.686;23.350;2022-11-23T00:51:39;10.50;;;6.60;;
2039;SDS011;1025;42.686;23.350;2022-11-23T00:54:05;8.67;;;7.60;;
2039;SDS011;1025;42.686;23.350;2022-11-23T00:56:32;7.10;;;6.57;;
2039;SDS011;1025;42.686;23.350;2022-11-23T00:59:00;7.27;;;6.67;;
2039;SDS011;1025;42.686;23.350;2022-11-23T01:01:27;6.10;;;5.80;;
2039;SDS011;1025;42.686;23.350;2022-11-23T01:03:56;6.10;;;5.70;;
2039;SDS011;1025;42.686;23.350;2022-11-23T01:06:24;6.53;;;6.10;;
2039;SDS011;1025;42.686;23.350;2022-11-23T01:08:52;6.90;;;6.40;;
2039;SDS011;1025;42.686;23.350;2022-11-23T01:11:19;12.60;;;7.77;;
2039;SDS011;1025;42.686;23.350;2022-11-23T01:13:45;24.00;;;7.77;;
2039;SDS011;1025;42.686;23.350;2022-11-23T01:16:13;7.20;;;6.60;;
2039;SDS011;1025;42.686;23.350;2022-11-23T01:18:40;7.73;;;7.23;;
2039;SDS011;1025;42.686;23.350;2022-11-23T01:21:08;7.40;;;6.73;;
2039;SDS011;1025;42.686;23.350;2022-11-23T01:23:34;6.87;;;6.47;;
2039;SDS011;1025;42.686;23.350;2022-11-23T01:26:02;7.30;;;6.60;;
2039;SDS011;1025;42.686;23.350;2022-11-23T01:28:29;6.57;;;6.13;;
2039;SDS011;1025;42.686;23.350;2022-11-23T01:31:01;6.43;;;5.97;;
2039;SDS011;1025;42.686;23.350;2022-11-23T01:33:28;8.03;;;7.33;;
2039;SDS011;1025;42.686;23.350;2022-11-23T01:35:55;7.03;;;6.53;;
2039;SDS011;1025;42.686;23.350;2022-11-23T01:38:22;6.97;;;6.47;;
2039;SDS011;1025;42.686;23.350;2022-11-23T01:40:49;6.80;;;6.40;;
2039;SDS011;1025;42.686;23.350;2022-11-23T01:43:16;7.90;;;7.30;;
2039;SDS011;1025;42.686;23.350;2022-11-23T01:45:43;7.93;;;7.23;;
2039;SDS011;1025;42.686;23.350;2022-11-23T01:48:12;6.33;;;5.93;;
2039;SDS011;1025;42.686;23.350;2022-11-23T01:50:40;6.73;;;6.33;;
2039;SDS011;1025;42.686;23.350;2022-11-23T01:53:07;6.13;;;5.83;;
2039;SDS011;1025;42.686;23.350;2022-11-23T01:55:35;9.07;;;8.40;;
2039;SDS011;1025;42.686;23.350;2022-11-23T01:58:02;7.73;;;7.13;;
2039;SDS011;1025;42.686;23.350;2022-11-23T02:00:31;6.13;;;5.57;;
2039;SDS011;1025;42.686;23.350;2022-11-23T02:02:58;7.10;;;6.70;;
2039;SDS011;1025;42.686;23.350;2022-11-23T02:05:26;8.73;;;7.80;;
2039;SDS011;1025;42.686;23.350;2022-11-23T02:07:56;8.07;;;7.37;;
2039;SDS011;1025;42.686;23.350;2022-11-23T02:10:23;12.30;;;8.93;;
2039;SDS011;1025;42.686;23.350;2022-11-23T02:12:51;8.27;;;7.57;;
2039;SDS011;1025;42.686;23.350;2022-11-23T02:15:18;6.83;;;6.30;;
2039;SDS011;1025;42.686;23.350;2022-11-23T02:17:44;10.03;;;7.80;;
2039;SDS011;1025;42.686;23.350;2022-11-23T02:20:12;9.43;;;8.50;;
2039;SDS011;1025;42.686;23.350;2022-11-23T02:22:41;7.53;;;6.83;;
2039;SDS011;1025;42.686;23.350;2022-11-23T02:25:12;8.13;;;7.37;;
2039;SDS011;1025;42.686;23.350;2022-11-23T02:27:42;7.23;;;6.80;;
2039;SDS011;1025;42.686;23.350;2022-11-23T02:30:09;8.13;;;7.53;;
2039;SDS011;1025;42.686;23.350;2022-11-23T02:32:36;7.50;;;5.90;;
2039;SDS011;1025;42.686;23.350;2022-11-23T02:35:03;8.03;;;7.43;;
2039;SDS011;1025;42.686;23.350;2022-11-23T02:37:30;12.17;;;7.67;;
2039;SDS011;1025;42.686;23.350;2022-11-23T02:39:56;6.63;;;6.13;;
2039;SDS011;1025;42.686;23.350;2022-11-23T02:42:24;7.20;;;6.70;;
2039;SDS011;1025;42.686;23.350;2022-11-23T02:44:54;7.67;;;6.83;;
2039;SDS011;1025;42.686;23.350;2022-11-23T02:47:25;11.83;;;7.37;;
2039;SDS011;1025;42.686;23.350;2022-11-23T02:49:52;7.07;;;6.60;;
2039;SDS011;1025;42.686;23.350;2022-11-23T02:52:19;6.93;;;6.47;;
2039;SDS011;1025;42.686;23.350;2022-11-23T02:54:45;6.10;;;5.80;;
2039;SDS011;1025;42.686;23.350;2022-11-23T02:57:12;7.13;;;6.63;;
2039;SDS011;1025;42.686;23.350;2022-11-23T02:59:39;6.43;;;6.03;;
2039;SDS011;1025;42.686;23.350;2022-11-23T03:02:07;5.20;;;4.90;;
2039;SDS011;1025;42.686;23.350;2022-11-23T03:04:33;6.40;;;5.47;;
2039;SDS011;1025;42.686;23.350;2022-11-23T03:07:00;7.70;;;7.10;;
2039;SDS011;1025;42.686;23.350;2022-11-23T03:09:26;10.13;;;6.63;;
2039;SDS011;1025;42.686;23.350;2022-11-23T03:11:53;6.00;;;5.60;;
2039;SDS011;1025;42.686;23.350;2022-11-23T03:14:20;19.97;;;8.57;;
2039;SDS011;1025;42.686;23.350;2022-11-23T03:16:47;6.50;;;6.00;;
2039;SDS011;1025;42.686;23.350;2022-11-23T03:19:15;7.73;;;7.13;;
2039;SDS011;1025;42.686;23.350;2022-11-23T03:21:42;4.70;;;4.40;;
2039;SDS011;1025;42.686;23.350;2022-11-23T03:24:08;5.50;;;5.10;;
2039;SDS011;1025;42.686;23.350;2022-11-23T03:26:35;10.90;;;5.70;;
2039;SDS011;1025;42.686;23.350;2022-11-23T03:29:01;6.17;;;5.67;;
2039;SDS011;1025;42.686;23.350;2022-11-23T03:31:28;5.73;;;5.43;;
2039;SDS011;1025;42.686;23.350;2022-11-23T03:33:54;6.20;;;5.80;;
2039;SDS011;1025;42.686;23.350;2022-11-23T03:36:22;5.27;;;4.97;;
2039;SDS011;1025;42.686;23.350;2022-11-23T03:38:49;4.73;;;4.53;;
2039;SDS011;1025;42.686;23.350;2022-11-23T03:41:15;6.20;;;5.80;;
2039;SDS011;1025;42.686;23.350;2022-11-23T03:43:42;5.70;;;5.20;;
2039;SDS011;1025;42.686;23.350;2022-11-23T03:46:08;6.70;;;6.30;;
2039;SDS011;1025;42.686;23.350;2022-11-23T03:48:35;4.47;;;4.27;;
2039;SDS011;1025;42.686;23.350;2022-11-23T03:51:01;4.70;;;4.50;;
2039;SDS011;1025;42.686;23.350;2022-11-23T03:53:29;5.30;;;4.90;;
2039;SDS011;1025;42.686;23.350;2022-11-23T03:55:56;4.80;;;4.60;;
2039;SDS011;1025;42.686;23.350;2022-11-23T03:58:22;6.87;;;6.13;;
2039;SDS011;1025;42.686;23.350;2022-11-23T04:00:49;6.33;;;5.93;;
2039;SDS011;1025;42.686;23.350;2022-11-23T04:03:15;6.47;;;5.97;;
2039;SDS011;1025;42.686;23.350;2022-11-23T04:05:42;5.77;;;5.27;;
2039;SDS011;1025;42.686;23.350;2022-11-23T04:08:09;4.93;;;4.63;;
2039;SDS011;1025;42.686;23.350;2022-11-23T04:10:37;6.20;;;5.80;;
2039;SDS011;1025;42.686;23.350;2022-11-23T04:13:03;5.90;;;5.50;;
2039;SDS011;1025;42.686;23.350;2022-11-23T04:15:30;7.53;;;6.57;;
2039;SDS011;1025;42.686;23.350;2022-11-23T04:17:56;5.60;;;5.30;;
2039;SDS011;1025;42.686;23.350;2022-11-23T04:20:23;6.70;;;6.30;;
2039;SDS011;1025;42.686;23.350;2022-11-23T04:22:49;5.20;;;4.80;;
2039;SDS011;1025;42.686;23.350;2022-11-23T04:25:16;6.17;;;5.77;;
2039;SDS011;1025;42.686;23.350;2022-11-23T04:27:44;5.50;;;5.20;;
2039;SDS011;1025;42.686;23.350;2022-11-23T04:30:11;6.60;;;6.20;;
2039;SDS011;1025;42.686;23.350;2022-11-23T04:32:38;5.97;;;5.43;;
2039;SDS011;1025;42.686;23.350;2022-11-23T04:35:05;6.40;;;6.00;;
2039;SDS011;1025;42.686;23.350;2022-11-23T04:37:31;6.33;;;5.83;;
2039;SDS011;1025;42.686;23.350;2022-11-23T04:40:01;6.87;;;6.30;;
2039;SDS011;1025;42.686;23.350;2022-11-23T04:42:28;7.30;;;6.60;;
2039;SDS011;1025;42.686;23.350;2022-11-23T04:44:56;6.93;;;6.53;;
2039;SDS011;1025;42.686;23.350;2022-11-23T04:47:23;7.20;;;6.60;;
2039;SDS011;1025;42.686;23.350;2022-11-23T04:49:49;6.23;;;5.90;;
2039;SDS011;1025;42.686;23.350;2022-11-23T04:52:16;9.47;;;7.30;;
2039;SDS011;1025;42.686;23.350;2022-11-23T04:54:43;6.23;;;5.73;;
2039;SDS011;1025;42.686;23.350;2022-11-23T04:57:10;7.13;;;6.50;;
2039;SDS011;1025;42.686;23.350;2022-11-23T04:59:38;7.00;;;6.50;;
2039;SDS011;1025;42.686;23.350;2022-11-23T05:02:07;7.17;;;6.67;;
2039;SDS011;1025;42.686;23.350;2022-11-23T05:04:34;8.47;;;7.30;;
2039;SDS011;1025;42.686;23.350;2022-11-23T05:07:01;6.47;;;6.13;;
2039;SDS011;1025;42.686;23.350;2022-11-23T05:09:28;6.67;;;6.27;;
2039;SDS011;1025;42.686;23.350;2022-11-23T05:11:54;5.73;;;5.43;;
2039;SDS011;1025;42.686;23.350;2022-11-23T05:14:21;8.30;;;7.57;;
2039;SDS011;1025;42.686;23.350;2022-11-23T05:16:47;7.50;;;6.90;;
2039;SDS011;1025;42.686;23.350;2022-11-23T05:19:15;6.70;;;6.27;;
2039;SDS011;1025;42.686;23.350;2022-11-23T05:21:42;6.50;;;6.10;;
2039;SDS011;1025;42.686;23.350;2022-11-23T05:24:08;7.67;;;7.07;;
2039;SDS011;1025;42.686;23.350;2022-11-23T05:26:36;9.00;;;7.40;;
2039;SDS011;1025;42.686;23.350;2022-11-23T05:29:03;6.93;;;6.53;;
2039;SDS011;1025;42.686;23.350;2022-11-23T05:31:29;7.90;;;7.30;;
2039;SDS011;1025;42.686;23.350;2022-11-23T05:33:56;9.87;;;8.90;;
2039;SDS011;1025;42.686;23.350;2022-11-23T05:36:24;8.70;;;7.90;;
2039;SDS011;1025;42.686;23.350;2022-11-23T05:38:50;7.87;;;7.27;;
2039;SDS011;1025;42.686;23.350;2022-11-23T05:41:17;7.43;;;6.90;;
2039;SDS011;1025;42.686;23.350;2022-11-23T05:43:43;8.30;;;7.60;;
2039;SDS011;1025;42.686;23.350;2022-11-23T05:46:10;6.20;;;5.80;;
2039;SDS011;1025;42.686;23.350;2022-11-23T05:48:36;9.10;;;8.43;;
2039;SDS011;1025;42.686;23.350;2022-11-23T05:51:03;8.73;;;8.13;;
2039;SDS011;1025;42.686;23.350;2022-11-23T05:53:31;9.10;;;8.50;;
2039;SDS011;1025;42.686;23.350;2022-11-23T05:55:58;9.03;;;8.33;;
2039;SDS011;1025;42.686;23.350;2022-11-23T05:58:24;9.67;;;8.97;;
2039;SDS011;1025;42.686;23.350;2022-11-23T06:00:51;9.47;;;8.87;;
2039;SDS011;1025;42.686;23.350;2022-11-23T06:03:17;9.77;;;8.97;;
2039;SDS011;1025;42.686;23.350;2022-11-23T06:05:45;9.90;;;9.10;;
2039;SDS011;1025;42.686;23.350;2022-11-23T06:08:12;11.10;;;9.90;;
2039;SDS011;1025;42.686;23.350;2022-11-23T06:10:40;9.50;;;8.83;;
2039;SDS011;1025;42.686;23.350;2022-11-23T06:13:06;9.70;;;9.00;;
2039;SDS011;1025;42.686;23.350;2022-11-23T06:15:33;9.63;;;9.00;;
2039;SDS011;1025;42.686;23.350;2022-11-23T06:18:00;9.20;;;8.60;;
2039;SDS011;1025;42.686;23.350;2022-11-23T06:20:26;10.17;;;9.27;;
2039;SDS011;1025;42.686;23.350;2022-11-23T06:22:53;9.57;;;8.87;;
2039;SDS011;1025;42.686;23.350;2022-11-23T06:25:20;9.33;;;8.63;;
2039;SDS011;1025;42.686;23.350;2022-11-23T06:27:54;10.43;;;9.63;;
2039;SDS011;1025;42.686;23.350;2022-11-23T06:30:21;12.20;;;11.40;;
2039;SDS011;1025;42.686;23.350;2022-11-23T06:32:48;14.40;;;13.30;;
2039;SDS011;1025;42.686;23.350;2022-11-23T06:35:14;12.80;;;11.70;;
2039;SDS011;1025;42.686;23.350;2022-11-23T06:37:41;13.50;;;12.50;;
2039;SDS011;1025;42.686;23.350;2022-11-23T06:40:08;11.97;;;11.20;;
2039;SDS011;1025;42.686;23.350;2022-11-23T06:42:35;14.07;;;12.80;;
2039;SDS011;1025;42.686;23.350;2022-11-23T06:45:04;10.73;;;10.03;;
2039;SDS011;1025;42.686;23.350;2022-11-23T06:47:31;12.70;;;11.80;;
2039;SDS011;1025;42.686;23.350;2022-11-23T06:49:57;12.17;;;11.10;;
2039;SDS011;1025;42.686;23.350;2022-11-23T06:52:24;13.50;;;12.50;;
2039;SDS011;1025;42.686;23.350;2022-11-23T06:54:50;13.13;;;12.17;;
2039;SDS011;1025;42.686;23.350;2022-11-23T06:57:17;13.80;;;12.80;;
2039;SDS011;1025;42.686;23.350;2022-11-23T06:59:44;11.73;;;10.93;;
2039;SDS011;1025;42.686;23.350;2022-11-23T07:02:12;14.40;;;12.87;;
2039;SDS011;1025;42.686;23.350;2022-11-23T07:04:39;12.47;;;11.67;;
2039;SDS011;1025;42.686;23.350;2022-11-23T07:07:06;12.07;;;11.20;;
2039;SDS011;1025;42.686;23.350;2022-11-23T07:09:32;14.07;;;12.63;;
2039;SDS011;1025;42.686;23.350;2022-11-23T07:11:59;13.83;;;12.73;;
2039;SDS011;1025;42.686;23.350;2022-11-23T07:14:25;13.80;;;12.60;;
2039;SDS011;1025;42.686;23.350;2022-11-23T07:16:52;14.20;;;13.20;;
2039;SDS011;1025;42.686;23.350;2022-11-23T07:19:20;14.53;;;13.33;;
2039;SDS011;1025;42.686;23.350;2022-11-23T07:21:46;14.00;;;13.00;;
2039;SDS011;1025;42.686;23.350;2022-11-23T07:24:13;12.93;;;12.03;;
2039;SDS011;1025;42.686;23.350;2022-11-23T07:26:40;11.03;;;10.33;;
2039;SDS011;1025;42.686;23.350;2022-11-23T07:29:06;14.67;;;13.30;;
2039;SDS011;1025;42.686;23.350;2022-11-23T07:31:33;16.00;;;14.60;;
2039;SDS011;1025;42.686;23.350;2022-11-23T07:33:59;13.03;;;11.87;;
2039;SDS011;1025;42.686;23.350;2022-11-23T07:36:27;14.33;;;13.20;;
2039;SDS011;1025;42.686;23.350;2022-11-23T07:38:54;12.03;;;11.20;;
2039;SDS011;1025;42.686;23.350;2022-11-23T07:41:20;13.77;;;12.67;;
2039;SDS011;1025;42.686;23.350;2022-11-23T07:43:47;15.37;;;13.80;;
2039;SDS011;1025;42.686;23.350;2022-11-23T07:46:14;14.53;;;13.37;;
2039;SDS011;1025;42.686;23.350;2022-11-23T07:48:40;16.67;;;14.53;;
2039;SDS011;1025;42.686;23.350;2022-11-23T07:51:07;14.23;;;13.27;;
2039;SDS011;1025;42.686;23.350;2022-11-23T07:53:35;13.37;;;12.47;;
2039;SDS011;1025;42.686;23.350;2022-11-23T07:56:01;15.60;;;14.20;;
2039;SDS011;1025;42.686;23.350;2022-11-23T07:58:28;15.33;;;14.23;;
2039;SDS011;1025;42.686;23.350;2022-11-23T08:00:56;15.43;;;14.27;;
2039;SDS011;1025;42.686;23.350;2022-11-23T08:03:23;14.17;;;13.20;;
2039;SDS011;1025;42.686;23.350;2022-11-23T08:05:50;15.60;;;14.30;;
2039;SDS011;1025;42.686;23.350;2022-11-23T08:08:16;12.57;;;11.77;;
2039;SDS011;1025;42.686;23.350;2022-11-23T08:10:44;14.40;;;13.20;;
2039;SDS011;1025;42.686;23.350;2022-11-23T08:13:11;14.73;;;13.63;;
2039;SDS011;1025;42.686;23.350;2022-11-23T08:15:37;13.70;;;12.60;;
2039;SDS011;1025;42.686;23.350;2022-11-23T08:18:04;13.57;;;12.67;;
2039;SDS011;1025;42.686;23.350;2022-11-23T08:20:30;13.93;;;12.83;;
2039;SDS011;1025;42.686;23.350;2022-11-23T08:22:57;13.17;;;12.27;;
2039;SDS011;1025;42.686;23.350;2022-11-23T08:25:24;12.40;;;11.47;;
2039;SDS011;1025;42.686;23.350;2022-11-23T08:27:54;14.10;;;13.00;;
2039;SDS011;1025;42.686;23.350;2022-11-23T08:30:21;12.00;;;11.10;;
2039;SDS011;1025;42.686;23.350;2022-11-23T08:32:48;11.60;;;10.70;;
2039;SDS011;1025;42.686;23.350;2022-11-23T08:35:14;11.00;;;10.23;;
2039;SDS011;1025;42.686;23.350;2022-11-23T08:37:41;10.90;;;10.10;;
2039;SDS011;1025;42.686;23.350;2022-11-23T08:40:13;10.60;;;9.37;;
2039;SDS011;1025;42.686;23.350;2022-11-23T08:42:40;9.97;;;8.97;;
2039;SDS011;1025;42.686;23.350;2022-11-23T08:45:09;10.73;;;9.83;;
2039;SDS011;1025;42.686;23.350;2022-11-23T08:47:36;8.83;;;8.20;;
2039;SDS011;1025;42.686;23.350;2022-11-23T08:50:02;10.60;;;9.70;;
2039;SDS011;1025;42.686;23.350;2022-11-23T08:52:29;7.80;;;7.20;;
2039;SDS011;1025;42.686;23.350;2022-11-23T08:54:55;8.83;;;8.20;;
2039;SDS011;1025;42.686;23.350;2022-11-23T08:57:22;14.03;;;10.20;;
2039;SDS011;1025;42.686;23.350;2022-11-23T08:59:49;6.90;;;6.60;;
2039;SDS011;1025;42.686;23.350;2022-11-23T09:02:17;8.13;;;7.63;;
2039;SDS011;1025;42.686;23.350;2022-11-23T09:04:43;7.57;;;6.83;;
2039;SDS011;1025;42.686;23.350;2022-11-23T09:07:10;10.63;;;8.87;;
2039;SDS011;1025;42.686;23.350;2022-11-23T09:09:36;8.70;;;8.10;;
2039;SDS011;1025;42.686;23.350;2022-11-23T09:12:03;8.30;;;7.67;;
2039;SDS011;1025;42.686;23.350;2022-11-23T09:14:30;8.53;;;7.70;;
2039;SDS011;1025;42.686;23.350;2022-11-23T09:16:58;6.60;;;6.20;;
2039;SDS011;1025;42.686;23.350;2022-11-23T09:19:27;6.37;;;5.97;;
2039;SDS011;1025;42.686;23.350;2022-11-23T09:21:53;6.83;;;6.43;;
2039;SDS011;1025;42.686;23.350;2022-11-23T09:24:20;7.47;;;6.87;;
2039;SDS011;1025;42.686;23.350;2022-11-23T09:26:47;6.47;;;5.90;;
2039;SDS011;1025;42.686;23.350;2022-11-23T09:29:13;4.63;;;4.30;;
2039;SDS011;1025;42.686;23.350;2022-11-23T09:31:40;7.37;;;6.80;;
2039;SDS011;1025;42.686;23.350;2022-11-23T09:34:06;6.43;;;5.93;;
2039;SDS011;1025;42.686;23.350;2022-11-23T09:36:37;5.70;;;5.17;;
2039;SDS011;1025;42.686;23.350;2022-11-23T09:39:03;4.77;;;4.37;;
2039;SDS011;1025;42.686;23.350;2022-11-23T09:41:37;4.33;;;4.13;;
2039;SDS011;1025;42.686;23.350;2022-11-23T09:44:07;7.40;;;6.90;;
2039;SDS011;1025;42.686;23.350;2022-11-23T09:46:40;5.83;;;5.50;;
2039;SDS011;1025;42.686;23.350;2022-11-23T09:49:13;10.70;;;5.10;;
2039;SDS011;1025;42.686;23.350;2022-11-23T09:51:42;4.57;;;4.00;;
2039;SDS011;1025;42.686;23.350;2022-11-23T09:54:11;4.40;;;4.10;;
2039;SDS011;1025;42.686;23.350;2022-11-23T09:56:39;6.30;;;4.70;;
2039;SDS011;1025;42.686;23.350;2022-11-23T09:59:10;4.00;;;3.80;;
2039;SDS011;1025;42.686;23.350;2022-11-23T10:01:37;3.67;;;3.47;;
2039;SDS011;1025;42.686;23.350;2022-11-23T10:04:04;3.90;;;3.70;;
2039;SDS011;1025;42.686;23.350;2022-11-23T10:06:33;4.40;;;4.20;;
2039;SDS011;1025;42.686;23.350;2022-11-23T10:09:11;5.73;;;4.90;;
2039;SDS011;1025;42.686;23.350;2022-11-23T10:14:37;4.73;;;4.30;;
2039;SDS011;1025;42.686;23.350;2022-11-23T10:17:08;2.67;;;2.57;;
2039;SDS011;1025;42.686;23.350;2022-11-23T10:19:40;4.60;;;4.23;;
2039;SDS011;1025;42.686;23.350;2022-11-23T10:22:14;3.83;;;3.53;;
2039;SDS011;1025;42.686;23.350;2022-11-23T10:24:47;4.07;;;3.77;;
2039;SDS011;1025;42.686;23.350;2022-11-23T10:27:15;3.03;;;2.83;;
2039;SDS011;1025;42.686;23.350;2022-11-23T10:29:43;3.87;;;3.50;;
2039;SDS011;1025;42.686;23.350;2022-11-23T10:32:14;4.00;;;3.80;;
2039;SDS011;1025;42.686;23.350;2022-11-23T10:34:45;3.87;;;3.57;;
2039;SDS011;1025;42.686;23.350;2022-11-23T10:37:13;9.10;;;3.97;;
2039;SDS011;1025;42.686;23.350;2022-11-23T10:39:40;3.83;;;3.63;;
2039;SDS011;1025;42.686;23.350;2022-11-23T10:42:13;5.33;;;4.47;;
2039;SDS011;1025;42.686;23.350;2022-11-23T10:44:41;4.83;;;4.27;;
2039;SDS011;1025;42.686;23.350;2022-11-23T10:47:10;2.70;;;2.50;;
2039;SDS011;1025;42.686;23.350;2022-11-23T10:49:36;3.60;;;2.87;;
2039;SDS011;1025;42.686;23.350;2022-11-23T10:52:04;3.40;;;3.20;;
2039;SDS011;1025;42.686;23.350;2022-11-23T10:54:31;5.33;;;3.50;;
2039;SDS011;1025;42.686;23.350;2022-11-23T10:56:59;3.77;;;3.47;;
2039;SDS011;1025;42.686;23.350;2022-11-23T10:59:29;3.97;;;3.77;;
2039;SDS011;1025;42.686;23.350;2022-11-23T11:01:59;2.90;;;2.80;;
2039;SDS011;1025;42.686;23.350;2022-11-23T11:04:26;3.63;;;3.27;;
2039;SDS011;1025;42.686;23.350;2022-11-23T11:06:54;3.63;;;3.33;;
2039;SDS011;1025;42.686;23.350;2022-11-23T11:09:35;3.30;;;3.20;;
2039;SDS011;1025;42.686;23.350;2022-11-23T11:12:01;2.47;;;2.27;;
2039;SDS011;1025;42.686;23.350;2022-11-23T11:14:29;2.70;;;2.60;;
2039;SDS011;1025;42.686;23.350;2022-11-23T11:16:56;3.87;;;3.60;;
2039;SDS011;1025;42.686;23.350;2022-11-23T11:19:25;5.07;;;4.50;;
2039;SDS011;1025;42.686;23.350;2022-11-23T11:21:52;2.70;;;2.60;;
2039;SDS011;1025;42.686;23.350;2022-11-23T11:24:19;3.57;;;3.37;;
2039;SDS011;1025;42.686;23.350;2022-11-23T11:26:46;2.90;;;2.77;;
2039;SDS011;1025;42.686;23.350;2022-11-23T11:29:21;3.93;;;3.40;;
2039;SDS011;1025;42.686;23.350;2022-11-23T11:31:52;4.07;;;3.77;;
2039;SDS011;1025;42.686;23.350;2022-11-23T11:34:23;4.20;;;3.93;;
2039;SDS011;1025;42.686;23.350;2022-11-23T11:36:55;2.67;;;2.30;;
2039;SDS011;1025;42.686;23.350;2022-11-23T11:39:25;6.03;;;5.53;;
2039;SDS011;1025;42.686;23.350;2022-11-23T11:41:53;2.37;;;2.27;;
2039;SDS011;1025;42.686;23.350;2022-11-23T11:44:23;2.40;;;2.30;;
2039;SDS011;1025;42.686;23.350;2022-11-23T11:46:55;1.20;;;1.20;;
2039;SDS011;1025;42.686;23.350;2022-11-23T11:49:24;2.30;;;2.10;;
2039;SDS011;1025;42.686;23.350;2022-11-23T11:51:52;2.27;;;2.17;;
2039;SDS011;1025;42.686;23.350;2022-11-23T11:54:21;2.43;;;2.33;;
2039;SDS011;1025;42.686;23.350;2022-11-23T11:56:50;2.00;;;1.80;;
2039;SDS011;1025;42.686;23.350;2022-11-23T11:59:19;2.43;;;2.33;;
2039;SDS011;1025;42.686;23.350;2022-11-23T12:01:50;1.97;;;1.87;;
2039;SDS011;1025;42.686;23.350;2022-11-23T12:04:22;4.30;;;2.50;;
2039;SDS011;1025;42.686;23.350;2022-11-23T12:06:51;2.23;;;2.10;;
2039;SDS011;1025;42.686;23.350;2022-11-23T12:09:20;2.90;;;2.70;;
2039;SDS011;1025;42.686;23.350;2022-11-23T12:11:48;2.30;;;2.20;;
2039;SDS011;1025;42.686;23.350;2022-11-23T12:14:15;2.07;;;1.87;;
2039;SDS011;1025;42.686;23.350;2022-11-23T12:16:44;3.57;;;3.03;;
2039;SDS011;1025;42.686;23.350;2022-11-23T12:19:14;2.70;;;2.50;;
2039;SDS011;1025;42.686;23.350;2022-11-23T12:21:52;1.13;;;1.13;;
2039;SDS011;1025;42.686;23.350;2022-11-23T12:24:22;2.00;;;1.90;;
2039;SDS011;1025;42.686;23.350;2022-11-23T12:26:50;1.80;;;1.70;;
2039;SDS011;1025;42.686;23.350;2022-11-23T12:29:23;1.33;;;1.23;;
2039;SDS011;1025;42.686;23.350;2022-11-23T12:31:53;1.17;;;1.17;;
2039;SDS011;1025;42.686;23.350;2022-11-23T12:34:25;1.10;;;1.10;;
2039;SDS011;1025;42.686;23.350;2022-11-23T12:37:06;1.47;;;1.37;;
2039;SDS011;1025;42.686;23.350;2022-11-23T12:42:19;1.30;;;1.20;;
2039;SDS011;1025;42.686;23.350;2022-11-23T12:44:52;0.90;;;0.90;;
2039;SDS011;1025;42.686;23.350;2022-11-23T12:47:24;0.90;;;0.90;;
2039;SDS011;1025;42.686;23.350;2022-11-23T12:49:53;1.00;;;1.00;;
2039;SDS011;1025;42.686;23.350;2022-11-23T12:55:04;1.23;;;1.13;;
2039;SDS011;1025;42.686;23.350;2022-11-23T12:57:39;2.17;;;1.90;;
2039;SDS011;1025;42.686;23.350;2022-11-23T13:00:11;1.10;;;1.10;;
2039;SDS011;1025;42.686;23.350;2022-11-23T13:02:55;1.07;;;1.07;;
2039;SDS011;1025;42.686;23.350;2022-11-23T13:05:43;12.43;;;1.80;;
2039;SDS011;1025;42.686;23.350;2022-11-23T13:08:17;1.03;;;1.03;;
2039;SDS011;1025;42.686;23.350;2022-11-23T13:10:54;0.90;;;0.90;;
2039;SDS011;1025;42.686;23.350;2022-11-23T13:13:35;1.33;;;1.30;;
2039;SDS011;1025;42.686;23.350;2022-11-23T13:18:59;0.90;;;0.90;;
2039;SDS011;1025;42.686;23.350;2022-11-23T13:21:28;3.53;;;1.80;;
2039;SDS011;1025;42.686;23.350;2022-11-23T13:23:55;1.10;;;1.10;;
2039;SDS011;1025;42.686;23.350;2022-11-23T13:26:24;1.27;;;1.20;;
2039;SDS011;1025;42.686;23.350;2022-11-23T13:28:52;1.03;;;1.03;;
2039;SDS011;1025;42.686;23.350;2022-11-23T13:31:30;1.27;;;1.27;;
2039;SDS011;1025;42.686;23.350;2022-11-23T13:33:58;1.53;;;1.53;;
2039;SDS011;1025;42.686;23.350;2022-11-23T13:36:35;1.47;;;1.37;;
2039;SDS011;1025;42.686;23.350;2022-11-23T13:39:06;1.07;;;;;
2039;SDS011;1025;42.686;23.350;2022-11-23T13:41:57;1.10;;;1.10;;
2039;SDS011;1025;42.686;23.350;2022-11-23T13:44:25;1.20;;;1.17;;
2039;SDS011;1025;42.686;23.350;2022-11-23T13:47:03;1.87;;;1.77;;
2039;SDS011;1025;42.686;23.350;2022-11-23T13:49:39;2.43;;;2.10;;
2039;SDS011;1025;42.686;23.350;2022-11-23T13:52:26;1.50;;;1.40;;
2039;SDS011;1025;42.686;23.350;2022-11-23T13:54:54;0.80;;;0.80;;
2039;SDS011;1025;42.686;23.350;2022-11-23T13:57:23;1.00;;;1.00;;
2039;SDS011;1025;42.686;23.350;2022-11-23T13:59:50;1.33;;;1.20;;
2039;SDS011;1025;42.686;23.350;2022-11-23T14:04:52;1.20;;;1.10;;
2039;SDS011;1025;42.686;23.350;2022-11-23T14:07:39;2.57;;;2.37;;
2039;SDS011;1025;42.686;23.350;2022-11-23T14:10:14;3.37;;;3.17;;
2039;SDS011;1025;42.686;23.350;2022-11-23T14:12:45;1.00;;;1.00;;
2039;SDS011;1025;42.686;23.350;2022-11-23T14:15:14;3.07;;;2.03;;
2039;SDS011;1025;42.686;23.350;2022-11-23T14:17:53;4.13;;;3.83;;
2039;SDS011;1025;42.686;23.350;2022-11-23T14:20:31;2.13;;;1.33;;
2039;SDS011;1025;42.686;23.350;2022-11-23T14:23:05;2.27;;;2.07;;
2039;SDS011;1025;42.686;23.350;2022-11-23T14:25:36;1.53;;;1.43;;
2039;SDS011;1025;42.686;23.350;2022-11-23T14:28:11;1.00;;;1.00;;
2039;SDS011;1025;42.686;23.350;2022-11-23T14:30:47;1.70;;;1.20;;
2039;SDS011;1025;42.686;23.350;2022-11-23T14:33:22;1.70;;;1.60;;
2039;SDS011;1025;42.686;23.350;2022-11-23T14:35:52;1.70;;;1.60;;
2039;SDS011;1025;42.686;23.350;2022-11-23T14:41:19;3.43;;;3.23;;
2039;SDS011;1025;42.686;23.350;2022-11-23T14:43:48;4.10;;;3.90;;
2039;SDS011;1025;42.686;23.350;2022-11-23T14:46:16;3.00;;;2.87;;
2039;SDS011;1025;42.686;23.350;2022-11-23T14:48:44;3.10;;;2.80;;
2039;SDS011;1025;42.686;23.350;2022-11-23T14:51:11;2.67;;;2.47;;
2039;SDS011;1025;42.686;23.350;2022-11-23T14:53:40;2.50;;;2.40;;
2039;SDS011;1025;42.686;23.350;2022-11-23T14:56:14;2.93;;;2.50;;
2039;SDS011;1025;42.686;23.350;2022-11-23T14:58:41;4.10;;;3.10;;
2039;SDS011;1025;42.686;23.350;2022-11-23T15:01:09;3.07;;;2.83;;
2039;SDS011;1025;42.686;23.350;2022-11-23T15:03:42;4.20;;;3.90;;
2039;SDS011;1025;42.686;23.350;2022-11-23T15:06:09;3.23;;;3.13;;
2039;SDS011;1025;42.686;23.350;2022-11-23T15:08:40;5.47;;;5.07;;
2039;SDS011;1025;42.686;23.350;2022-11-23T15:11:09;4.90;;;4.60;;
2039;SDS011;1025;42.686;23.350;2022-11-23T15:13:41;5.17;;;4.00;;
2039;SDS011;1025;42.686;23.350;2022-11-23T15:16:09;12.63;;;3.73;;
2039;SDS011;1025;42.686;23.350;2022-11-23T15:18:37;3.17;;;3.07;;
2039;SDS011;1025;42.686;23.350;2022-11-23T15:21:12;3.23;;;2.97;;